createdAt,value
2023-05-10T00:00:47.688Z,13.36
2023-05-10T00:03:18.292Z,13.27
2023-05-10T00:05:48.460Z,13.31
2023-05-10T00:08:18.564Z,13.17
2023-05-10T00:10:48.740Z,13.12
2023-05-10T00:13:19.335Z,13.21
2023-05-10T00:15:49.557Z,13.15
2023-05-10T00:18:19.684Z,13.18
2023-05-10T00:20:49.985Z,13.10
2023-05-10T00:23:20.159Z,13.13
2023-05-10T00:25:50.726Z,13.08
2023-05-10T00:28:20.940Z,13.09
2023-05-10T00:30:54.005Z,13.10
2023-05-10T00:33:24.983Z,12.90
2023-05-10T00:35:55.124Z,13.03
2023-05-10T00:38:25.766Z,12.99
2023-05-10T00:40:55.983Z,13.09
2023-05-10T00:43:26.518Z,12.95
2023-05-10T00:45:57.009Z,12.94
2023-05-10T00:48:27.245Z,12.81
2023-05-10T00:50:58.395Z,12.90
2023-05-10T00:53:38.451Z,12.76
2023-05-10T00:56:11.776Z,12.89
2023-05-10T00:58:42.193Z,12.86
2023-05-10T01:01:15.397Z,12.76
2023-05-10T01:03:45.959Z,12.83
2023-05-10T01:06:16.128Z,12.75
2023-05-10T01:08:47.451Z,12.74
2023-05-10T01:11:17.729Z,12.80
2023-05-10T01:13:56.780Z,12.67
2023-05-10T01:16:31.198Z,12.71
2023-05-10T01:19:02.034Z,12.51
2023-05-10T01:21:49.543Z,12.66
2023-05-10T01:24:28.378Z,12.63
2023-05-10T01:27:20.021Z,12.59
2023-05-10T01:30:14.976Z,12.56
2023-05-10T01:33:13.096Z,12.52
2023-05-10T01:35:56.328Z,12.29
2023-05-10T01:38:58.888Z,12.46
2023-05-10T01:41:34.831Z,12.46
2023-05-10T01:44:24.781Z,12.29
2023-05-10T01:47:03.038Z,12.38
2023-05-10T01:49:42.719Z,12.34
2023-05-10T01:52:15.191Z,12.28
2023-05-10T01:54:57.020Z,12.09
2023-05-10T01:57:32.494Z,12.23
2023-05-10T02:00:05.469Z,12.27
2023-05-10T02:02:38.911Z,12.30
2023-05-10T02:05:10.432Z,12.22
2023-05-10T02:07:41.781Z,12.21
2023-05-10T02:10:13.373Z,12.16
2023-05-10T02:12:47.210Z,12.22
2023-05-10T02:15:22.405Z,12.11
2023-05-10T02:17:55.709Z,12.16
2023-05-10T02:20:26.749Z,12.14
2023-05-10T02:22:59.176Z,12.06
2023-05-10T02:25:31.105Z,12.05
2023-05-10T02:28:05.559Z,12.06
2023-05-10T02:30:36.316Z,12.04
2023-05-10T02:33:07.051Z,11.81
2023-05-10T02:35:38.830Z,12.01
2023-05-10T02:38:10.389Z,12.00
2023-05-10T02:40:43.653Z,11.99
2023-05-10T02:43:17.532Z,11.88
2023-05-10T02:45:49.368Z,11.90
2023-05-10T02:48:19.574Z,11.95
2023-05-10T02:50:53.776Z,11.96
2023-05-10T02:53:32.306Z,11.89
2023-05-10T02:56:08.989Z,11.85
2023-05-10T02:58:38.919Z,11.91
2023-05-10T03:01:09.298Z,11.85
2023-05-10T03:03:39.492Z,11.64
2023-05-10T03:06:10.721Z,11.76
2023-05-10T03:08:41.175Z,11.71
2023-05-10T03:11:36.831Z,11.81
2023-05-10T03:14:44.020Z,11.83
2023-05-10T03:17:17.221Z,11.81
2023-05-10T03:19:57.544Z,11.79
2023-05-10T03:22:45.651Z,11.81
2023-05-10T03:25:17.715Z,11.77
2023-05-10T03:27:48.444Z,11.69
2023-05-10T03:30:19.747Z,11.70
2023-05-10T03:32:50.010Z,11.79
2023-05-10T03:35:20.265Z,11.85
2023-05-10T03:37:50.439Z,11.85
2023-05-10T03:40:20.575Z,11.88
2023-05-10T03:42:50.710Z,11.72
2023-05-10T03:45:21.194Z,11.88
2023-05-10T03:47:51.567Z,11.69
2023-05-10T03:50:22.248Z,11.84
2023-05-10T03:52:54.099Z,11.86
2023-05-10T03:55:25.119Z,11.82
2023-05-10T03:57:55.401Z,11.86
2023-05-10T04:00:25.495Z,11.88
2023-05-10T04:02:55.684Z,11.87
2023-05-10T04:05:25.831Z,11.94
2023-05-10T04:07:56.017Z,11.73
2023-05-10T04:10:26.203Z,11.87
2023-05-10T04:12:56.576Z,11.83
2023-05-10T04:15:26.693Z,11.80
2023-05-10T04:17:57.057Z,11.66
2023-05-10T04:20:27.113Z,11.70
2023-05-10T04:22:57.304Z,11.93
2023-05-10T04:25:27.423Z,11.83
2023-05-10T04:27:57.580Z,11.83
2023-05-10T04:30:29.659Z,11.74
2023-05-10T04:33:01.156Z,11.77
2023-05-10T04:35:31.434Z,11.71
2023-05-10T04:38:04.931Z,11.91
2023-05-10T04:40:35.539Z,11.84
2023-05-10T04:43:05.766Z,11.88
2023-05-10T04:45:35.924Z,11.90
2023-05-10T04:48:06.685Z,11.71
2023-05-10T04:50:36.885Z,11.91
2023-05-10T04:53:07.004Z,11.79
2023-05-10T04:55:37.104Z,11.99
2023-05-10T04:58:07.259Z,12.02
2023-05-10T05:00:37.427Z,12.01
2023-05-10T05:03:07.627Z,11.84
2023-05-10T05:05:37.952Z,12.05
2023-05-10T05:08:08.109Z,12.11
2023-05-10T05:10:38.324Z,12.08
2023-05-10T05:13:08.525Z,12.07
2023-05-10T05:15:38.851Z,12.26
2023-05-10T05:18:09.147Z,12.31
2023-05-10T05:20:39.416Z,12.36
2023-05-10T05:23:09.577Z,12.40
2023-05-10T05:25:40.001Z,12.41
2023-05-10T05:28:10.227Z,12.38
2023-05-10T05:30:40.397Z,12.48
2023-05-10T05:33:10.535Z,12.50
2023-05-10T05:35:40.720Z,12.48
2023-05-10T05:38:10.965Z,12.57
2023-05-10T05:40:41.221Z,12.53
2023-05-10T05:43:11.420Z,12.64
2023-05-10T05:45:42.000Z,12.64
2023-05-10T05:48:12.490Z,12.63
2023-05-10T05:50:42.806Z,12.63
2023-05-10T05:53:13.853Z,12.77
2023-05-10T05:55:58.408Z,12.73
2023-05-10T05:58:29.157Z,12.81
2023-05-10T06:00:59.245Z,12.82
2023-05-10T06:03:29.533Z,13.04
2023-05-10T06:05:59.720Z,13.09
2023-05-10T06:08:29.834Z,13.06
2023-05-10T06:10:59.961Z,13.10
2023-05-10T06:13:33.310Z,13.17
2023-05-10T06:16:04.297Z,13.21
2023-05-10T06:18:35.003Z,13.23
2023-05-10T06:21:05.430Z,13.32
2023-05-10T06:23:35.765Z,13.40
2023-05-10T06:26:05.986Z,13.38
2023-05-10T06:28:36.350Z,13.47
2023-05-10T06:31:07.915Z,13.64
2023-05-10T06:33:38.077Z,13.63
2023-05-10T06:36:08.462Z,13.62
2023-05-10T06:38:38.524Z,13.79
2023-05-10T06:41:09.295Z,13.80
2023-05-10T06:43:42.479Z,13.92
2023-05-10T06:46:12.611Z,13.89
2023-05-10T06:48:42.832Z,14.06
2023-05-10T06:51:12.955Z,14.03
2023-05-10T06:53:43.088Z,14.20
2023-05-10T06:56:13.165Z,14.25
2023-05-10T06:58:43.323Z,14.21
2023-05-10T07:01:13.506Z,14.41
2023-05-10T07:03:43.858Z,14.43
2023-05-10T07:06:29.394Z,14.41
2023-05-10T07:09:03.643Z,14.60
2023-05-10T07:11:33.854Z,14.67
2023-05-10T07:14:04.242Z,14.64
2023-05-10T07:16:34.500Z,14.64
2023-05-10T07:19:06.494Z,14.70
2023-05-10T07:21:45.912Z,14.83
2023-05-10T07:24:16.034Z,14.91
2023-05-10T07:26:54.192Z,14.75
2023-05-10T07:29:37.381Z,15.10
2023-05-10T07:32:23.916Z,14.98
2023-05-10T07:34:55.368Z,15.12
2023-05-10T07:37:25.802Z,15.43
2023-05-10T07:40:01.605Z,15.53
2023-05-10T07:42:37.488Z,15.57
2023-05-10T07:45:10.323Z,15.66
2023-05-10T07:47:40.488Z,15.72
2023-05-10T07:50:13.235Z,15.64
2023-05-10T07:52:43.411Z,15.85
2023-05-10T07:55:14.030Z,15.95
2023-05-10T07:57:44.593Z,16.00
2023-05-10T08:00:19.258Z,15.82
2023-05-10T08:02:50.312Z,15.98
2023-05-10T08:05:20.721Z,16.01
2023-05-10T08:07:51.484Z,16.08
2023-05-10T08:10:21.744Z,16.14
2023-05-10T08:12:54.259Z,16.17
2023-05-10T08:15:24.425Z,16.16
2023-05-10T08:17:54.814Z,16.26
2023-05-10T08:20:25.018Z,16.32
2023-05-10T08:22:55.319Z,16.34
2023-05-10T08:25:26.852Z,16.46
2023-05-10T08:27:57.079Z,16.46
2023-05-10T08:30:27.471Z,16.53
2023-05-10T08:32:57.678Z,16.57
2023-05-10T08:35:27.974Z,16.66
2023-05-10T08:37:58.736Z,16.57
2023-05-10T08:40:29.144Z,16.65
2023-05-10T08:43:12.307Z,16.76
2023-05-10T08:45:48.089Z,16.74
2023-05-10T08:48:18.808Z,16.70
2023-05-10T08:50:50.439Z,16.52
2023-05-10T08:53:22.256Z,16.70
2023-05-10T08:55:52.988Z,16.77
2023-05-10T08:58:23.194Z,16.84
2023-05-10T09:00:54.002Z,16.89
2023-05-10T09:03:24.438Z,16.98
2023-05-10T09:05:56.922Z,16.99
2023-05-10T09:08:28.117Z,17.03
2023-05-10T09:10:59.138Z,17.13
2023-05-10T09:13:29.893Z,17.15
2023-05-10T09:16:09.848Z,17.21
2023-05-10T09:18:45.746Z,17.29
2023-05-10T09:21:15.956Z,17.42
2023-05-10T09:23:48.515Z,17.50
2023-05-10T09:26:23.966Z,17.51
2023-05-10T09:28:55.061Z,17.72
2023-05-10T09:31:28.696Z,17.71
2023-05-10T09:33:58.972Z,17.79
2023-05-10T09:36:29.173Z,17.81
2023-05-10T09:38:59.314Z,17.79
2023-05-10T09:41:29.940Z,17.69
2023-05-10T09:44:00.124Z,17.83
2023-05-10T09:46:30.665Z,17.87
2023-05-10T09:49:00.822Z,18.03
2023-05-10T09:51:31.060Z,18.14
2023-05-10T09:54:16.166Z,18.10
2023-05-10T09:56:46.498Z,18.05
2023-05-10T09:59:16.619Z,18.16
2023-05-10T10:01:53.333Z,18.21
2023-05-10T10:04:23.574Z,18.19
2023-05-10T10:07:01.880Z,18.25
2023-05-10T10:09:33.188Z,18.18
2023-05-10T10:12:05.779Z,18.26
2023-05-10T10:14:36.356Z,18.35
2023-05-10T10:17:08.953Z,18.41
2023-05-10T10:19:39.435Z,18.22
2023-05-10T10:22:11.897Z,18.38
2023-05-10T10:24:42.205Z,18.35
2023-05-10T10:28:04.398Z,18.48
2023-05-10T10:30:48.519Z,18.62
2023-05-10T10:33:58.123Z,18.72
2023-05-10T10:36:28.469Z,18.51
2023-05-10T10:39:03.155Z,18.78
2023-05-10T10:41:38.440Z,18.78
2023-05-10T10:44:41.547Z,19.03
2023-05-10T10:47:13.000Z,19.19
2023-05-10T10:49:52.961Z,19.05
2023-05-10T10:52:39.862Z,19.28
2023-05-10T10:55:15.243Z,19.39
2023-05-10T10:57:53.605Z,19.59
2023-05-10T11:00:32.509Z,19.77
2023-05-10T11:03:13.269Z,19.77
2023-05-10T11:05:45.580Z,19.93
2023-05-10T11:08:18.723Z,20.05
2023-05-10T11:10:54.623Z,20.18
2023-05-10T11:13:32.014Z,20.42
2023-05-10T11:16:11.440Z,20.52
2023-05-10T11:18:42.021Z,20.36
2023-05-10T11:21:12.235Z,20.49
2023-05-10T11:23:48.169Z,20.58
2023-05-10T11:26:19.221Z,20.64
2023-05-10T11:28:50.130Z,20.70
2023-05-10T11:31:21.399Z,20.68
2023-05-10T11:33:53.483Z,20.91
2023-05-10T11:36:34.086Z,20.97
2023-05-10T11:39:05.482Z,20.97
2023-05-10T11:41:35.908Z,21.09
2023-05-10T11:44:06.134Z,20.99
2023-05-10T11:46:38.243Z,20.87
2023-05-10T11:49:09.058Z,20.94
2023-05-10T11:51:40.470Z,20.89
2023-05-10T11:54:12.607Z,20.82
2023-05-10T11:56:42.856Z,20.81
2023-05-10T11:59:15.909Z,20.89
2023-05-10T12:01:46.281Z,20.87
2023-05-10T12:04:17.766Z,20.88
2023-05-10T12:06:48.340Z,21.05
2023-05-10T12:09:23.013Z,21.15
2023-05-10T12:12:03.635Z,21.26
2023-05-10T12:14:36.922Z,21.25
2023-05-10T12:17:07.068Z,21.57
2023-05-10T12:22:24.670Z,22.48
2023-05-10T12:24:54.841Z,23.65
2023-05-10T12:27:41.407Z,24.77
2023-05-10T12:30:12.250Z,25.95
2023-05-10T12:32:45.818Z,26.86
2023-05-10T12:35:17.111Z,27.55
2023-05-10T12:37:53.541Z,28.69
2023-05-10T12:40:23.821Z,29.71
2023-05-10T12:42:53.988Z,30.57
2023-05-10T12:45:24.301Z,31.04
2023-05-10T12:47:59.172Z,31.61
2023-05-10T12:50:29.301Z,32.53
2023-05-10T12:52:59.495Z,33.37
2023-05-10T12:55:32.767Z,33.96
2023-05-10T12:58:18.044Z,34.56
2023-05-10T13:01:04.275Z,34.95
2023-05-10T13:03:34.678Z,34.63
2023-05-10T13:06:07.171Z,34.84
2023-05-10T13:08:37.235Z,35.98
2023-05-10T13:11:07.539Z,36.43
2023-05-10T13:13:37.708Z,36.94
2023-05-10T13:16:07.968Z,36.62
2023-05-10T13:18:38.175Z,36.53
2023-05-10T13:21:08.753Z,36.90
2023-05-10T13:23:39.288Z,37.45
2023-05-10T13:26:09.421Z,37.28
2023-05-10T13:28:40.021Z,37.33
2023-05-10T13:31:10.257Z,37.20
2023-05-10T13:33:40.440Z,37.07
2023-05-10T13:36:10.638Z,37.34
2023-05-10T13:38:43.639Z,37.64
2023-05-10T13:41:13.676Z,37.70
2023-05-10T13:43:55.518Z,37.88
2023-05-10T13:46:25.762Z,38.05
2023-05-10T13:48:56.058Z,38.19
2023-05-10T13:51:28.959Z,37.69
2023-05-10T13:53:59.675Z,38.06
2023-05-10T13:56:29.850Z,38.60
2023-05-10T13:59:00.660Z,38.91
2023-05-10T14:01:30.810Z,38.84
2023-05-10T14:04:01.721Z,38.29
2023-05-10T14:06:32.001Z,38.22
2023-05-10T14:09:02.232Z,38.78
2023-05-10T14:11:32.393Z,39.16
2023-05-10T14:14:06.876Z,38.83
2023-05-10T14:16:37.145Z,38.68
2023-05-10T14:19:07.413Z,38.71
2023-05-10T14:21:49.927Z,38.63
2023-05-10T14:24:23.153Z,38.49
2023-05-10T14:26:55.033Z,38.49
2023-05-10T14:29:25.192Z,38.14
2023-05-10T14:32:15.626Z,38.50
2023-05-10T14:34:45.863Z,38.66
2023-05-10T14:37:16.598Z,38.72
2023-05-10T14:39:46.901Z,38.76
2023-05-10T14:42:17.305Z,38.73
2023-05-10T14:44:47.461Z,38.32
2023-05-10T14:47:17.567Z,38.15
2023-05-10T14:49:48.118Z,38.04
2023-05-10T14:52:18.562Z,37.52
2023-05-10T14:54:49.069Z,37.10
2023-05-10T14:57:19.209Z,36.55
2023-05-10T14:59:49.350Z,36.20
2023-05-10T15:02:20.004Z,36.21
2023-05-10T15:04:51.918Z,35.69
2023-05-10T15:07:22.822Z,34.63
2023-05-10T15:09:53.130Z,34.13
2023-05-10T15:12:23.503Z,33.42
2023-05-10T15:14:53.669Z,32.76
2023-05-10T15:17:23.864Z,31.80
2023-05-10T15:19:54.027Z,30.98
2023-05-10T15:22:24.326Z,30.12
2023-05-10T15:24:54.712Z,29.38
2023-05-10T15:27:24.803Z,28.69
2023-05-10T15:30:01.753Z,27.86
2023-05-10T15:32:32.221Z,27.15
2023-05-10T15:35:04.663Z,26.57
2023-05-10T15:37:34.840Z,26.14
2023-05-10T15:40:05.602Z,25.69
2023-05-10T15:42:35.766Z,25.25
2023-05-10T15:45:06.406Z,24.76
2023-05-10T15:47:36.602Z,24.57
2023-05-10T15:50:07.792Z,24.06
2023-05-10T15:52:38.265Z,23.84
2023-05-10T15:55:18.443Z,23.66
2023-05-10T15:57:48.938Z,23.59
2023-05-10T16:00:19.298Z,23.42
2023-05-10T16:02:49.632Z,23.16
2023-05-10T16:05:20.590Z,22.83
2023-05-10T16:07:53.405Z,22.56
2023-05-10T16:10:23.705Z,22.48
2023-05-10T16:12:55.050Z,22.28
2023-05-10T16:15:25.300Z,22.24
2023-05-10T16:17:55.532Z,22.21
2023-05-10T16:20:25.966Z,22.01
2023-05-10T16:22:56.313Z,21.77
2023-05-10T16:25:26.740Z,21.52
2023-05-10T16:27:56.884Z,21.44
2023-05-10T16:30:29.400Z,21.36
2023-05-10T16:33:01.562Z,21.23
2023-05-10T16:35:31.951Z,21.26
2023-05-10T16:38:02.598Z,21.14
2023-05-10T16:40:32.984Z,21.07
2023-05-10T16:43:03.368Z,20.84
2023-05-10T16:45:33.946Z,20.88
2023-05-10T16:48:06.435Z,20.85
2023-05-10T16:50:39.832Z,20.79
2023-05-10T16:53:11.907Z,20.69
2023-05-10T16:55:42.329Z,20.64
2023-05-10T16:58:12.425Z,20.54
2023-05-10T17:00:43.145Z,20.33
2023-05-10T17:03:19.965Z,20.36
2023-05-10T17:05:50.198Z,20.25
2023-05-10T17:08:22.309Z,20.29
2023-05-10T17:10:52.451Z,20.33
2023-05-10T17:13:22.589Z,20.36
2023-05-10T17:15:53.289Z,20.23
2023-05-10T17:18:24.085Z,20.22
2023-05-10T17:20:54.302Z,20.06
2023-05-10T17:23:24.552Z,20.01
2023-05-10T17:25:54.742Z,19.93
2023-05-10T17:28:24.897Z,19.87
2023-05-10T17:30:58.987Z,19.81
2023-05-10T17:33:29.119Z,19.80
2023-05-10T17:35:59.414Z,19.53
2023-05-10T17:38:30.873Z,19.68
2023-05-10T17:41:03.849Z,19.58
2023-05-10T17:43:34.053Z,19.53
2023-05-10T17:46:04.312Z,19.49
2023-05-10T17:48:36.774Z,19.42
2023-05-10T17:51:07.194Z,19.31
2023-05-10T17:53:37.605Z,19.35
2023-05-10T17:56:08.150Z,19.22
2023-05-10T17:58:39.050Z,19.24
2023-05-10T18:01:09.498Z,19.16
2023-05-10T18:03:40.058Z,18.95
2023-05-10T18:06:10.482Z,18.96
2023-05-10T18:08:42.246Z,18.79
2023-05-10T18:11:12.505Z,18.71
2023-05-10T18:13:42.664Z,18.69
2023-05-10T18:16:13.640Z,18.76
2023-05-10T18:18:43.927Z,18.76
2023-05-10T18:21:14.245Z,18.68
2023-05-10T18:23:44.850Z,18.68
2023-05-10T18:26:15.213Z,18.43
2023-05-10T18:28:45.324Z,18.59
2023-05-10T18:31:16.519Z,18.59
2023-05-10T18:33:46.934Z,18.51
2023-05-10T18:36:17.218Z,18.44
2023-05-10T18:38:47.580Z,18.39
2023-05-10T18:41:18.834Z,18.36
2023-05-10T18:43:49.050Z,18.21
2023-05-10T18:46:19.308Z,18.25
2023-05-10T18:48:49.433Z,18.22
2023-05-10T18:51:20.544Z,18.21
2023-05-10T18:53:50.751Z,18.06
2023-05-10T18:56:22.269Z,18.02
2023-05-10T18:58:52.814Z,17.93
2023-05-10T19:01:22.950Z,17.92
2023-05-10T19:03:53.126Z,17.95
2023-05-10T19:06:23.275Z,17.86
2023-05-10T19:08:54.906Z,17.84
2023-05-10T19:11:25.158Z,17.73
2023-05-10T19:13:55.270Z,17.66
2023-05-10T19:16:26.153Z,17.71
2023-05-10T19:18:57.700Z,17.56
2023-05-10T19:21:28.011Z,17.60
2023-05-10T19:23:58.481Z,17.49
2023-05-10T19:26:28.769Z,17.48
2023-05-10T19:29:02.466Z,17.40
2023-05-10T19:31:33.754Z,17.34
2023-05-10T19:34:05.977Z,17.18
2023-05-10T19:36:36.185Z,17.23
2023-05-10T19:39:06.388Z,17.08
2023-05-10T19:41:37.381Z,17.12
2023-05-10T19:44:07.772Z,17.08
2023-05-10T19:46:38.038Z,16.95
2023-05-10T19:49:08.222Z,17.02
2023-05-10T19:51:38.447Z,16.91
2023-05-10T19:54:08.679Z,16.97
2023-05-10T19:56:38.825Z,16.87
2023-05-10T19:59:09.825Z,16.87
2023-05-10T20:01:40.097Z,16.86
2023-05-10T20:04:10.489Z,16.75
2023-05-10T20:06:40.771Z,16.71
2023-05-10T20:09:10.889Z,16.72
2023-05-10T20:11:41.054Z,16.64
2023-05-10T20:14:11.244Z,16.55
2023-05-10T20:16:41.763Z,16.64
2023-05-10T20:19:12.592Z,16.57
2023-05-10T20:21:42.981Z,16.56
2023-05-10T20:24:13.207Z,16.41
2023-05-10T20:26:43.324Z,16.48
2023-05-10T20:29:13.514Z,16.46
2023-05-10T20:31:43.737Z,16.45
2023-05-10T20:34:14.031Z,16.37
2023-05-10T20:36:44.108Z,16.27
2023-05-10T20:39:15.064Z,16.37
2023-05-10T20:41:45.202Z,16.24
2023-05-10T20:44:15.440Z,16.31
2023-05-10T20:46:45.554Z,16.26
2023-05-10T20:49:15.767Z,16.24
2023-05-10T20:51:45.897Z,16.21
2023-05-10T20:54:16.144Z,16.08
2023-05-10T20:56:46.270Z,16.06
2023-05-10T20:59:16.479Z,16.02
2023-05-10T21:01:46.601Z,15.90
2023-05-10T21:04:16.888Z,15.98
2023-05-10T21:06:47.019Z,15.89
2023-05-10T21:09:17.778Z,15.84
2023-05-10T21:11:48.190Z,15.86
2023-05-10T21:14:18.444Z,15.85
2023-05-10T21:16:48.707Z,15.81
2023-05-10T21:19:19.233Z,15.73
2023-05-10T21:21:49.356Z,15.74
2023-05-10T21:24:19.542Z,15.74
2023-05-10T21:26:49.683Z,15.74
2023-05-10T21:29:20.061Z,15.66
2023-05-10T21:31:50.291Z,15.59
2023-05-10T21:34:21.138Z,15.66
2023-05-10T21:36:51.232Z,15.54
2023-05-10T21:39:21.361Z,15.54
2023-05-10T21:41:51.438Z,15.45
2023-05-10T21:44:21.732Z,15.51
2023-05-10T21:46:51.889Z,15.44
2023-05-10T21:49:22.150Z,15.40
2023-05-10T21:51:52.282Z,15.47
2023-05-10T21:54:22.523Z,15.42
2023-05-10T21:56:52.768Z,15.40
2023-05-10T21:59:23.485Z,15.30
2023-05-10T22:01:53.556Z,15.32
2023-05-10T22:04:23.706Z,15.31
2023-05-10T22:06:53.851Z,15.19
2023-05-10T22:09:25.511Z,15.25
2023-05-10T22:11:55.814Z,15.22
2023-05-10T22:14:25.993Z,15.19
2023-05-10T22:16:57.870Z,15.24
2023-05-10T22:19:28.025Z,15.22
2023-05-10T22:21:58.241Z,15.15
2023-05-10T22:24:28.435Z,15.02
2023-05-10T22:26:58.512Z,15.06
2023-05-10T22:29:29.452Z,15.13
2023-05-10T22:31:59.615Z,15.02
2023-05-10T22:34:29.731Z,15.05
2023-05-10T22:36:59.999Z,15.06
2023-05-10T22:39:30.198Z,14.86
2023-05-10T22:42:00.387Z,14.84
2023-05-10T22:44:30.650Z,14.95
2023-05-10T22:47:00.839Z,14.94
2023-05-10T22:49:32.062Z,14.85
2023-05-10T22:52:02.551Z,14.70
2023-05-10T22:54:33.769Z,14.58
2023-05-10T22:57:06.209Z,14.69
2023-05-10T22:59:36.748Z,14.77
2023-05-10T23:02:07.051Z,14.73
2023-05-10T23:04:37.393Z,14.52
2023-05-10T23:07:07.703Z,14.68
2023-05-10T23:09:37.862Z,14.69
2023-05-10T23:12:08.102Z,14.62
2023-05-10T23:14:38.294Z,14.65
2023-05-10T23:17:08.945Z,14.65
2023-05-10T23:19:39.182Z,14.57
2023-05-10T23:22:10.112Z,14.58
2023-05-10T23:24:41.388Z,14.56
2023-05-10T23:27:11.539Z,14.52
2023-05-10T23:29:42.366Z,14.42
2023-05-10T23:32:12.589Z,14.41
2023-05-10T23:34:42.812Z,14.43
2023-05-10T23:37:12.957Z,14.28
2023-05-10T23:39:43.119Z,14.36
2023-05-10T23:42:13.304Z,14.39
2023-05-10T23:44:43.437Z,14.31
2023-05-10T23:47:13.689Z,14.30
2023-05-10T23:49:43.863Z,14.28
2023-05-10T23:52:14.228Z,14.27
2023-05-10T23:54:45.943Z,14.17
2023-05-10T23:57:16.228Z,14.22
2023-05-10T23:59:46.739Z,14.21
